createdAt,value
2022-10-11T00:00:17.843Z,9.60
2022-10-11T00:02:20.633Z,9.60
2022-10-11T00:04:23.430Z,9.60
2022-10-11T00:06:26.209Z,9.60
2022-10-11T00:08:29.069Z,9.60
2022-10-11T00:10:33.353Z,9.60
2022-10-11T00:12:36.347Z,9.50
2022-10-11T00:14:39.263Z,9.50
2022-10-11T00:16:44.410Z,9.50
2022-10-11T00:18:47.249Z,9.50
2022-10-11T00:20:50.099Z,9.50
2022-10-11T00:22:52.907Z,9.40
2022-10-11T00:24:55.746Z,9.40
2022-10-11T00:26:59.867Z,9.40
2022-10-11T00:29:02.628Z,9.40
2022-10-11T00:31:08.242Z,9.40
2022-10-11T00:33:11.244Z,9.40
2022-10-11T00:35:14.649Z,9.30
2022-10-11T00:37:17.438Z,9.40
2022-10-11T00:39:20.242Z,9.30
2022-10-11T00:41:23.244Z,9.40
2022-10-11T00:43:28.759Z,9.30
2022-10-11T00:46:00.657Z,9.40
2022-10-11T00:48:04.978Z,9.30
2022-10-11T00:50:09.711Z,9.30
2022-10-11T00:52:15.053Z,9.30
2022-10-11T00:54:18.856Z,9.30
2022-10-11T00:56:23.355Z,9.30
2022-10-11T00:58:27.505Z,9.30
2022-10-11T01:00:30.305Z,9.20
2022-10-11T01:02:33.148Z,9.20
2022-10-11T01:04:35.964Z,9.20
2022-10-11T01:06:38.757Z,9.20
2022-10-11T01:08:41.536Z,9.20
2022-10-11T01:10:44.766Z,9.10
2022-10-11T01:12:53.075Z,9.10
2022-10-11T01:15:05.283Z,9.10
2022-10-11T01:17:14.003Z,9.10
2022-10-11T01:19:25.613Z,9.00
2022-10-11T01:21:34.078Z,9.00
2022-10-11T01:24:09.386Z,9.00
2022-10-11T01:26:25.419Z,9.00
2022-10-11T01:28:36.240Z,9.00
2022-10-11T01:30:40.405Z,9.00
2022-10-11T01:32:45.958Z,9.00
2022-10-11T01:34:51.053Z,9.00
2022-10-11T01:36:57.617Z,9.00
2022-10-11T01:39:03.212Z,9.00
2022-10-11T01:41:10.482Z,9.00
2022-10-11T01:43:13.295Z,9.00
2022-10-11T01:45:17.598Z,9.00
2022-10-11T01:47:21.966Z,8.90
2022-10-11T01:49:24.742Z,8.90
2022-10-11T01:51:30.126Z,8.90
2022-10-11T01:54:03.774Z,8.90
2022-10-11T01:56:10.905Z,8.90
2022-10-11T01:58:15.207Z,8.90
2022-10-11T02:00:18.895Z,8.90
2022-10-11T02:02:31.441Z,8.90
2022-10-11T02:04:34.865Z,8.80
2022-10-11T02:06:40.958Z,8.80
2022-10-11T02:08:47.290Z,8.80
2022-10-11T02:10:52.735Z,8.80
2022-10-11T02:12:58.197Z,8.80
2022-10-11T02:15:01.155Z,8.80
2022-10-11T02:17:07.603Z,8.70
2022-10-11T02:19:11.967Z,8.70
2022-10-11T02:21:16.689Z,8.70
2022-10-11T02:23:22.323Z,8.70
2022-10-11T02:25:27.672Z,8.70
2022-10-11T02:27:32.009Z,8.70
2022-10-11T02:29:36.064Z,8.70
2022-10-11T02:31:38.921Z,8.70
2022-10-11T02:33:44.673Z,8.70
2022-10-11T02:35:50.658Z,8.70
2022-10-11T02:37:54.594Z,8.70
2022-10-11T02:39:59.626Z,8.60
2022-10-11T02:42:03.535Z,8.60
2022-10-11T02:44:08.837Z,8.60
2022-10-11T02:46:11.640Z,8.60
2022-10-11T02:48:14.455Z,8.60
2022-10-11T02:50:17.717Z,8.60
2022-10-11T02:52:21.831Z,8.50
2022-10-11T02:54:24.678Z,8.50
2022-10-11T02:56:27.478Z,8.50
2022-10-11T02:58:30.251Z,8.50
2022-10-11T03:00:33.056Z,8.50
2022-10-11T03:02:35.911Z,8.50
2022-10-11T03:04:38.701Z,8.50
2022-10-11T03:06:41.498Z,8.50
2022-10-11T03:08:45.635Z,8.50
2022-10-11T03:10:48.445Z,8.50
2022-10-11T03:12:51.217Z,8.50
2022-10-11T03:14:54.305Z,8.50
2022-10-11T03:17:12.044Z,8.50
2022-10-11T03:19:19.882Z,8.40
2022-10-11T03:21:25.034Z,8.40
2022-10-11T03:23:27.831Z,8.40
2022-10-11T03:25:31.990Z,8.40
2022-10-11T03:27:34.769Z,8.40
2022-10-11T03:29:37.582Z,8.40
2022-10-11T03:31:40.423Z,8.40
2022-10-11T03:33:43.185Z,8.40
2022-10-11T03:35:46.282Z,8.30
2022-10-11T03:37:49.054Z,8.30
2022-10-11T03:39:51.816Z,8.30
2022-10-11T03:41:55.958Z,8.30
2022-10-11T03:43:59.014Z,8.30
2022-10-11T03:46:02.127Z,8.30
2022-10-11T03:48:05.364Z,8.30
2022-10-11T03:50:08.811Z,8.30
2022-10-11T03:52:11.706Z,8.30
2022-10-11T03:54:14.477Z,8.30
2022-10-11T03:56:17.617Z,8.30
2022-10-11T03:58:21.790Z,8.30
2022-10-11T04:00:24.556Z,8.30
2022-10-11T04:02:27.324Z,8.30
2022-10-11T04:04:30.316Z,8.30
2022-10-11T04:06:33.116Z,8.20
2022-10-11T04:08:35.873Z,8.20
2022-10-11T04:10:39.059Z,8.30
2022-10-11T04:12:41.857Z,8.30
2022-10-11T04:14:45.983Z,8.30
2022-10-11T04:16:48.761Z,8.20
2022-10-11T04:18:51.524Z,8.20
2022-10-11T04:20:54.350Z,8.20
2022-10-11T04:22:57.143Z,8.20
2022-10-11T04:25:00.087Z,8.20
2022-10-11T04:27:02.877Z,8.20
2022-10-11T04:29:06.072Z,8.20
2022-10-11T04:31:10.218Z,8.20
2022-10-11T04:33:13.003Z,8.20
2022-10-11T04:35:15.786Z,8.20
2022-10-11T04:37:18.606Z,8.10
2022-10-11T04:39:21.402Z,8.10
2022-10-11T04:41:24.255Z,8.10
2022-10-11T04:43:27.030Z,8.10
2022-10-11T04:45:30.035Z,8.10
2022-10-11T04:47:34.171Z,8.10
2022-10-11T04:49:37.013Z,8.10
2022-10-11T04:51:40.001Z,8.10
2022-10-11T04:53:42.794Z,8.10
2022-10-11T04:55:45.666Z,8.00
2022-10-11T04:57:48.451Z,8.10
2022-10-11T04:59:51.227Z,8.10
2022-10-11T05:01:54.086Z,8.00
2022-10-11T05:03:58.270Z,8.00
2022-10-11T05:06:05.393Z,8.00
2022-10-11T05:08:09.265Z,8.00
2022-10-11T05:10:12.042Z,8.00
2022-10-11T05:12:15.022Z,8.00
2022-10-11T05:14:17.794Z,8.00
2022-10-11T05:16:20.574Z,7.90
2022-10-11T05:18:23.361Z,7.80
2022-10-11T05:20:27.840Z,7.80
2022-10-11T05:22:30.605Z,7.80
2022-10-11T05:24:33.461Z,7.80
2022-10-11T05:26:36.311Z,7.80
2022-10-11T05:28:39.184Z,7.70
2022-10-11T05:30:42.056Z,7.70
2022-10-11T05:32:44.819Z,7.70
2022-10-11T05:34:47.590Z,7.70
2022-10-11T05:36:51.724Z,7.60
2022-10-11T05:38:54.486Z,7.60
2022-10-11T05:41:00.047Z,7.60
2022-10-11T05:43:02.813Z,7.60
2022-10-11T05:45:06.350Z,7.60
2022-10-11T05:47:09.146Z,7.70
2022-10-11T05:49:12.103Z,7.70
2022-10-11T05:51:14.894Z,7.70
2022-10-11T05:53:19.010Z,7.70
2022-10-11T05:55:21.816Z,7.80
2022-10-11T05:57:24.621Z,7.80
2022-10-11T05:59:27.406Z,7.80
2022-10-11T06:01:30.278Z,7.90
2022-10-11T06:03:33.123Z,7.90
2022-10-11T06:05:36.178Z,8.00
2022-10-11T06:07:39.035Z,8.00
2022-10-11T06:09:43.157Z,8.00
2022-10-11T06:11:46.427Z,8.00
2022-10-11T06:13:49.493Z,8.00
2022-10-11T06:15:52.267Z,8.00
2022-10-11T06:17:55.068Z,8.00
2022-10-11T06:19:57.847Z,8.10
2022-10-11T06:22:00.639Z,8.10
2022-10-11T06:24:03.441Z,8.20
2022-10-11T06:26:09.358Z,8.30
2022-10-11T06:28:12.984Z,8.30
2022-10-11T06:30:15.946Z,8.40
2022-10-11T06:32:18.736Z,8.50
2022-10-11T06:34:21.614Z,8.50
2022-10-11T06:36:24.423Z,8.60
2022-10-11T06:38:27.324Z,8.70
2022-10-11T06:40:30.306Z,8.70
2022-10-11T06:42:34.415Z,8.80
2022-10-11T06:44:37.185Z,8.80
2022-10-11T06:46:40.000Z,8.80
2022-10-11T06:48:43.313Z,8.90
2022-10-11T06:50:59.751Z,8.90
2022-10-11T06:53:03.244Z,9.00
2022-10-11T06:55:06.863Z,9.00
2022-10-11T06:57:10.098Z,9.10
2022-10-11T06:59:14.981Z,9.10
2022-10-11T07:01:19.123Z,9.20
2022-10-11T07:03:22.007Z,9.30
2022-10-11T07:05:24.786Z,9.40
2022-10-11T07:07:27.570Z,9.50
2022-10-11T07:09:30.816Z,9.80
2022-10-11T07:11:33.728Z,10.30
2022-10-11T07:13:36.599Z,10.70
2022-10-11T07:15:41.159Z,11.30
2022-10-11T07:17:43.953Z,11.70
2022-10-11T07:19:47.677Z,12.30
2022-10-11T07:21:50.532Z,12.70
2022-10-11T07:23:53.638Z,13.00
2022-10-11T07:25:56.427Z,13.40
2022-10-11T07:27:59.223Z,13.60
2022-10-11T07:30:01.988Z,13.90
2022-10-11T07:32:06.191Z,14.00
2022-10-11T07:34:09.142Z,14.30
2022-10-11T07:36:11.947Z,14.30
2022-10-11T07:38:14.734Z,14.40
2022-10-11T07:40:17.609Z,14.60
2022-10-11T07:42:21.970Z,14.70
2022-10-11T07:44:24.838Z,15.10
2022-10-11T07:46:27.650Z,15.20
2022-10-11T07:48:32.030Z,15.30
2022-10-11T07:50:34.934Z,15.50
2022-10-11T07:52:37.715Z,15.60
2022-10-11T07:54:40.740Z,15.50
2022-10-11T07:56:43.522Z,15.80
2022-10-11T07:58:49.829Z,15.80
2022-10-11T08:00:54.159Z,15.80
2022-10-11T08:02:57.039Z,15.90
2022-10-11T08:05:01.141Z,16.00
2022-10-11T08:07:03.936Z,16.10
2022-10-11T08:09:06.751Z,15.90
2022-10-11T08:11:09.521Z,15.20
2022-10-11T08:13:12.321Z,14.70
2022-10-11T08:15:39.233Z,14.50
2022-10-11T08:17:42.200Z,14.00
2022-10-11T08:19:45.017Z,13.70
2022-10-11T08:21:49.138Z,13.50
2022-10-11T08:23:51.918Z,13.30
2022-10-11T08:25:57.095Z,13.30
2022-10-11T08:27:59.881Z,13.20
2022-10-11T08:30:02.650Z,13.10
2022-10-11T08:32:05.859Z,13.10
2022-10-11T08:34:08.659Z,13.10
2022-10-11T08:36:11.675Z,13.10
2022-10-11T08:38:17.049Z,13.10
2022-10-11T08:40:20.913Z,13.20
2022-10-11T08:42:27.802Z,13.10
2022-10-11T08:44:58.320Z,13.20
2022-10-11T08:47:01.173Z,13.30
2022-10-11T08:49:04.106Z,13.40
2022-10-11T08:51:16.135Z,13.50
2022-10-11T08:53:23.662Z,13.50
2022-10-11T08:55:27.341Z,13.50
2022-10-11T08:57:31.056Z,13.50
2022-10-11T08:59:37.013Z,13.50
2022-10-11T09:01:40.557Z,13.70
2022-10-11T09:03:44.119Z,13.70
2022-10-11T09:05:58.460Z,13.90
2022-10-11T09:08:04.787Z,14.10
2022-10-11T09:10:37.735Z,14.20
2022-10-11T09:12:45.666Z,14.60
2022-10-11T09:15:16.625Z,15.20
2022-10-11T09:17:25.354Z,16.20
2022-10-11T09:19:39.130Z,16.90
2022-10-11T09:21:43.211Z,17.50
2022-10-11T09:24:04.982Z,18.10
2022-10-11T09:26:11.529Z,18.70
2022-10-11T09:28:18.895Z,19.30
2022-10-11T09:30:21.881Z,19.80
2022-10-11T09:32:26.001Z,20.30
2022-10-11T09:34:32.328Z,20.40
2022-10-11T09:36:37.239Z,20.90
2022-10-11T09:38:43.226Z,21.30
2022-10-11T09:40:52.105Z,21.40
2022-10-11T09:42:56.264Z,21.70
2022-10-11T09:45:00.077Z,21.90
2022-10-11T09:47:02.898Z,22.30
2022-10-11T09:49:08.034Z,22.20
2022-10-11T09:51:13.891Z,22.60
2022-10-11T09:53:16.705Z,22.70
2022-10-11T09:55:33.679Z,22.50
2022-10-11T09:57:38.500Z,21.90
2022-10-11T09:59:43.406Z,22.00
2022-10-11T10:01:46.255Z,21.60
2022-10-11T10:03:49.120Z,21.40
2022-10-11T10:05:52.386Z,21.10
2022-10-11T10:08:05.068Z,20.90
2022-10-11T10:10:27.796Z,20.70
2022-10-11T10:12:31.050Z,20.80
2022-10-11T10:14:33.846Z,21.10
2022-10-11T10:16:38.074Z,20.90
2022-10-11T10:18:44.004Z,21.10
2022-10-11T10:20:46.911Z,21.40
2022-10-11T10:22:49.721Z,21.60
2022-10-11T10:24:52.550Z,21.50
2022-10-11T10:27:09.819Z,21.90
2022-10-11T10:29:18.542Z,21.70
2022-10-11T10:31:22.599Z,21.80
2022-10-11T10:33:27.513Z,21.60
2022-10-11T10:35:32.496Z,21.20
2022-10-11T10:37:36.366Z,21.30
2022-10-11T10:39:40.622Z,21.10
2022-10-11T10:41:43.418Z,21.20
2022-10-11T10:43:49.663Z,21.00
2022-10-11T10:46:13.017Z,21.20
2022-10-11T10:48:19.288Z,21.20
2022-10-11T10:50:26.414Z,21.30
2022-10-11T10:52:45.886Z,21.30
2022-10-11T10:54:52.130Z,21.20
2022-10-11T10:56:56.789Z,21.20
2022-10-11T10:59:05.410Z,21.10
2022-10-11T11:01:11.729Z,21.00
2022-10-11T11:03:19.625Z,21.00
2022-10-11T11:05:27.381Z,20.90
2022-10-11T11:07:32.828Z,21.00
2022-10-11T11:09:41.510Z,21.40
2022-10-11T11:11:50.288Z,21.60
2022-10-11T11:13:56.119Z,21.80
2022-10-11T11:16:07.751Z,22.20
2022-10-11T11:18:20.583Z,21.90
2022-10-11T11:20:29.882Z,22.10
2022-10-11T11:22:37.837Z,22.00
2022-10-11T11:24:44.344Z,21.80
2022-10-11T11:26:49.058Z,21.50
2022-10-11T11:28:58.861Z,21.70
2022-10-11T11:31:04.730Z,21.50
2022-10-11T11:33:11.137Z,21.50
2022-10-11T11:35:16.846Z,21.40
2022-10-11T11:37:24.512Z,21.60
2022-10-11T11:39:28.998Z,22.00
2022-10-11T11:41:37.886Z,22.30
2022-10-11T11:43:46.179Z,22.40
2022-10-11T11:45:51.004Z,22.40
2022-10-11T11:47:55.466Z,22.80
2022-10-11T11:50:00.237Z,22.90
2022-10-11T11:52:03.274Z,23.00
2022-10-11T11:54:13.683Z,22.80
2022-10-11T11:56:24.418Z,23.00
2022-10-11T11:58:32.777Z,23.00
2022-10-11T12:00:37.680Z,23.10
2022-10-11T12:02:44.775Z,22.70
2022-10-11T12:04:48.332Z,22.70
2022-10-11T12:07:15.382Z,22.80
2022-10-11T12:09:23.076Z,22.40
2022-10-11T12:11:31.676Z,22.70
2022-10-11T12:13:37.738Z,23.40
2022-10-11T12:15:40.513Z,23.30
2022-10-11T12:18:05.752Z,23.60
2022-10-11T12:20:15.390Z,23.60
2022-10-11T12:22:20.993Z,23.70
2022-10-11T12:24:25.371Z,23.00
2022-10-11T12:26:38.740Z,23.40
2022-10-11T12:29:13.426Z,23.30
2022-10-11T12:31:21.546Z,23.40
2022-10-11T12:33:25.437Z,23.40
2022-10-11T12:35:40.016Z,23.10
2022-10-11T12:37:51.344Z,23.40
2022-10-11T12:39:55.872Z,23.60
2022-10-11T12:42:07.134Z,23.90
2022-10-11T12:44:15.178Z,23.90
2022-10-11T12:46:41.208Z,24.30
2022-10-11T12:48:48.182Z,24.30
2022-10-11T12:50:58.496Z,24.60
2022-10-11T12:53:06.405Z,24.60
2022-10-11T12:55:20.024Z,24.20
2022-10-11T12:57:49.919Z,23.40
2022-10-11T12:59:52.945Z,24.00
2022-10-11T13:01:56.124Z,24.30
2022-10-11T13:04:00.133Z,24.60
2022-10-11T13:06:11.966Z,25.00
2022-10-11T13:08:17.051Z,24.70
2022-10-11T13:10:25.354Z,24.90
2022-10-11T13:12:28.320Z,25.30
2022-10-11T13:14:32.051Z,25.50
2022-10-11T13:16:47.074Z,25.80
2022-10-11T13:18:50.915Z,25.70
2022-10-11T13:20:54.589Z,25.60
2022-10-11T13:22:57.983Z,25.00
2022-10-11T13:25:00.742Z,25.10
2022-10-11T13:27:05.113Z,25.50
2022-10-11T13:29:13.803Z,25.00
2022-10-11T13:31:17.193Z,25.20
2022-10-11T13:33:23.589Z,24.90
2022-10-11T13:35:29.936Z,25.10
2022-10-11T13:37:35.946Z,25.40
2022-10-11T13:39:39.481Z,25.60
2022-10-11T13:41:42.263Z,25.70
2022-10-11T13:43:46.434Z,25.90
2022-10-11T13:45:49.227Z,25.80
2022-10-11T13:47:52.678Z,25.60
2022-10-11T13:50:02.882Z,25.40
2022-10-11T13:52:08.006Z,24.60
2022-10-11T13:54:13.826Z,23.80
2022-10-11T13:56:16.860Z,23.10
2022-10-11T13:58:22.189Z,22.50
2022-10-11T14:00:29.226Z,22.80
2022-10-11T14:02:32.186Z,22.40
2022-10-11T14:04:39.748Z,22.80
2022-10-11T14:06:44.170Z,23.10
2022-10-11T14:08:47.659Z,23.40
2022-10-11T14:10:55.651Z,22.40
2022-10-11T14:13:04.723Z,22.80
2022-10-11T14:15:08.277Z,22.80
2022-10-11T14:17:16.748Z,23.10
2022-10-11T14:19:19.563Z,23.30
2022-10-11T14:21:30.520Z,23.30
2022-10-11T14:23:33.726Z,23.40
2022-10-11T14:25:36.518Z,23.60
2022-10-11T14:27:39.369Z,23.60
2022-10-11T14:30:00.310Z,23.60
2022-10-11T14:32:08.933Z,23.70
2022-10-11T14:34:16.512Z,23.70
2022-10-11T14:36:20.290Z,23.60
2022-10-11T14:38:23.103Z,23.20
2022-10-11T14:40:26.706Z,23.20
2022-10-11T14:42:29.489Z,23.10
2022-10-11T14:44:32.284Z,22.90
2022-10-11T14:46:35.783Z,22.80
2022-10-11T14:48:54.261Z,22.80
2022-10-11T14:51:00.308Z,22.80
2022-10-11T14:53:03.229Z,22.50
2022-10-11T14:55:06.239Z,22.40
2022-10-11T14:57:09.013Z,22.40
2022-10-11T14:59:13.335Z,22.20
2022-10-11T15:01:16.593Z,22.00
2022-10-11T15:03:19.473Z,21.90
2022-10-11T15:05:22.346Z,21.00
2022-10-11T15:07:26.482Z,20.50
2022-10-11T15:09:29.289Z,20.60
2022-10-11T15:11:32.077Z,20.40
2022-10-11T15:13:34.881Z,20.40
2022-10-11T15:15:40.764Z,20.20
2022-10-11T15:17:43.561Z,20.10
2022-10-11T15:19:46.358Z,19.60
2022-10-11T15:21:49.335Z,19.20
2022-10-11T15:23:53.795Z,19.20
2022-10-11T15:25:56.622Z,19.10
2022-10-11T15:27:59.416Z,18.90
2022-10-11T15:30:02.214Z,18.80
2022-10-11T15:32:05.314Z,18.70
2022-10-11T15:34:08.430Z,18.50
2022-10-11T15:36:13.378Z,18.20
2022-10-11T15:38:17.627Z,17.90
2022-10-11T15:40:23.552Z,17.60
2022-10-11T15:42:26.540Z,17.20
2022-10-11T15:44:29.504Z,17.00
2022-10-11T15:46:32.330Z,16.70
2022-10-11T15:48:35.461Z,16.50
2022-10-11T15:50:38.410Z,16.40
2022-10-11T15:52:41.315Z,16.20
2022-10-11T15:54:44.314Z,16.00
2022-10-11T15:56:48.444Z,15.90
2022-10-11T15:58:51.254Z,15.80
2022-10-11T16:00:55.050Z,15.70
2022-10-11T16:02:58.010Z,15.60
2022-10-11T16:05:00.815Z,15.60
2022-10-11T16:07:03.593Z,15.40
2022-10-11T16:09:06.653Z,15.40
2022-10-11T16:11:09.586Z,15.30
2022-10-11T16:13:13.777Z,15.30
2022-10-11T16:15:16.639Z,15.30
2022-10-11T16:17:19.466Z,15.30
2022-10-11T16:19:22.238Z,15.30
2022-10-11T16:21:25.053Z,15.20
2022-10-11T16:23:27.889Z,15.20
2022-10-11T16:25:30.703Z,15.10
2022-10-11T16:27:33.674Z,15.10
2022-10-11T16:29:37.812Z,15.00
2022-10-11T16:31:40.611Z,15.00
2022-10-11T16:33:46.499Z,14.90
2022-10-11T16:35:49.430Z,14.80
2022-10-11T16:37:52.255Z,14.70
2022-10-11T16:39:55.046Z,14.60
2022-10-11T16:41:57.810Z,14.50
2022-10-11T16:44:00.741Z,14.40
2022-10-11T16:46:05.235Z,14.40
2022-10-11T16:48:08.407Z,14.30
2022-10-11T16:50:11.597Z,14.20
2022-10-11T16:52:14.892Z,14.00
2022-10-11T16:54:20.407Z,13.80
2022-10-11T16:56:25.003Z,13.80
2022-10-11T16:58:27.831Z,13.80
2022-10-11T17:00:30.657Z,13.70
2022-10-11T17:02:34.906Z,13.70
2022-10-11T17:04:37.690Z,13.60
2022-10-11T17:06:41.128Z,13.50
2022-10-11T17:08:43.955Z,13.40
2022-10-11T17:10:47.538Z,13.30
2022-10-11T17:12:50.433Z,13.20
2022-10-11T17:14:53.390Z,13.10
2022-10-11T17:16:56.190Z,13.10
2022-10-11T17:19:00.348Z,13.00
2022-10-11T17:21:03.329Z,12.90
2022-10-11T17:23:06.131Z,12.80
2022-10-11T17:25:09.338Z,12.80
2022-10-11T17:27:12.133Z,12.70
2022-10-11T17:29:15.158Z,12.60
2022-10-11T17:31:18.068Z,12.60
2022-10-11T17:33:20.876Z,12.50
2022-10-11T17:35:25.003Z,12.50
2022-10-11T17:37:27.825Z,12.40
2022-10-11T17:39:30.786Z,12.40
2022-10-11T17:41:33.625Z,12.40
2022-10-11T17:43:36.428Z,12.40
2022-10-11T17:45:39.246Z,12.40
2022-10-11T17:47:42.069Z,12.30
2022-10-11T17:49:44.909Z,12.20
2022-10-11T17:51:49.055Z,12.20
2022-10-11T17:53:51.947Z,12.10
2022-10-11T17:55:56.877Z,12.10
2022-10-11T17:57:59.703Z,12.00
2022-10-11T18:00:03.814Z,11.90
2022-10-11T18:02:06.680Z,11.90
2022-10-11T18:04:16.239Z,11.70
2022-10-11T18:06:19.053Z,11.60
2022-10-11T18:08:23.215Z,11.50
2022-10-11T18:10:27.101Z,11.60
2022-10-11T18:12:30.077Z,11.50
2022-10-11T18:14:32.909Z,11.40
2022-10-11T18:16:36.078Z,11.50
2022-10-11T18:18:38.876Z,11.50
2022-10-11T18:20:45.711Z,11.40
2022-10-11T18:22:48.507Z,11.40
2022-10-11T18:24:52.663Z,11.30
2022-10-11T18:26:55.811Z,11.30
2022-10-11T18:28:58.725Z,11.20
2022-10-11T18:31:01.698Z,11.10
2022-10-11T18:33:04.511Z,11.10
2022-10-11T18:35:07.990Z,11.10
2022-10-11T18:37:10.769Z,11.00
2022-10-11T18:39:14.964Z,11.00
2022-10-11T18:41:20.887Z,11.00
2022-10-11T18:43:23.683Z,11.00
2022-10-11T18:45:26.490Z,11.00
2022-10-11T18:47:29.301Z,11.00
2022-10-11T18:49:32.099Z,11.00
2022-10-11T18:51:35.622Z,10.90
2022-10-11T18:53:38.569Z,10.90
2022-10-11T18:55:41.361Z,10.90
2022-10-11T18:57:45.546Z,10.90
2022-10-11T18:59:48.325Z,10.80
2022-10-11T19:01:52.567Z,10.70
2022-10-11T19:03:56.640Z,10.60
2022-10-11T19:06:02.126Z,10.60
2022-10-11T19:08:05.113Z,10.50
2022-10-11T19:10:08.488Z,10.40
2022-10-11T19:12:11.259Z,10.40
2022-10-11T19:14:16.674Z,10.40
2022-10-11T19:16:19.449Z,10.50
2022-10-11T19:18:22.259Z,10.50
2022-10-11T19:20:25.047Z,10.40
2022-10-11T19:22:27.845Z,10.40
2022-10-11T19:24:31.196Z,10.30
2022-10-11T19:26:35.193Z,10.30
2022-10-11T19:28:38.047Z,10.30
2022-10-11T19:30:42.319Z,10.30
2022-10-11T19:32:45.118Z,10.20
2022-10-11T19:34:47.922Z,10.20
2022-10-11T19:36:52.705Z,10.20
2022-10-11T19:38:56.668Z,10.20
2022-10-11T19:41:01.219Z,10.00
2022-10-11T19:43:04.023Z,9.90
2022-10-11T19:45:08.151Z,9.90
2022-10-11T19:47:12.333Z,9.80
2022-10-11T19:49:17.558Z,9.80
2022-10-11T19:51:21.974Z,9.80
2022-10-11T19:53:24.791Z,9.80
2022-10-11T19:55:27.581Z,9.70
2022-10-11T19:57:30.617Z,9.70
2022-10-11T19:59:33.881Z,9.70
2022-10-11T20:01:36.999Z,9.70
2022-10-11T20:03:41.179Z,9.60
2022-10-11T20:05:43.966Z,9.60
2022-10-11T20:07:46.767Z,9.50
2022-10-11T20:09:49.540Z,9.50
2022-10-11T20:11:52.391Z,9.50
2022-10-11T20:13:55.421Z,9.50
2022-10-11T20:15:58.430Z,9.50
2022-10-11T20:18:01.226Z,9.50
2022-10-11T20:20:05.842Z,9.50
2022-10-11T20:22:08.618Z,9.40
2022-10-11T20:24:11.419Z,9.50
2022-10-11T20:26:14.955Z,9.40
2022-10-11T20:28:17.806Z,9.30
2022-10-11T20:30:20.620Z,9.30
2022-10-11T20:32:23.422Z,9.20
2022-10-11T20:34:27.133Z,9.20
2022-10-11T20:36:31.535Z,9.20
2022-10-11T20:38:34.944Z,9.20
2022-10-11T20:40:40.904Z,9.10
2022-10-11T20:42:43.709Z,9.10
2022-10-11T20:44:48.106Z,9.00
2022-10-11T20:46:50.894Z,9.00
2022-10-11T20:48:58.855Z,8.90
2022-10-11T20:51:04.431Z,8.90
2022-10-11T20:53:11.773Z,8.90
2022-10-11T20:55:16.988Z,8.90
2022-10-11T20:57:19.742Z,8.90
2022-10-11T20:59:22.541Z,8.90
2022-10-11T21:01:26.957Z,8.90
2022-10-11T21:03:29.799Z,8.80
2022-10-11T21:05:32.577Z,8.80
2022-10-11T21:07:35.850Z,8.70
2022-10-11T21:09:40.249Z,8.70
2022-10-11T21:11:43.037Z,8.70
2022-10-11T21:13:45.856Z,8.60
2022-10-11T21:15:48.659Z,8.60
2022-10-11T21:17:51.922Z,8.60
2022-10-11T21:19:54.675Z,8.50
2022-10-11T21:21:57.460Z,8.50
2022-10-11T21:24:00.742Z,8.40
2022-10-11T21:26:05.193Z,8.40
2022-10-11T21:28:08.320Z,8.40
2022-10-11T21:30:11.691Z,8.30
2022-10-11T21:32:14.688Z,8.30
2022-10-11T21:34:17.733Z,8.30
2022-10-11T21:36:21.586Z,8.30
2022-10-11T21:38:24.382Z,8.20
2022-10-11T21:40:27.458Z,8.20
2022-10-11T21:42:31.594Z,8.20
2022-10-11T21:44:36.327Z,8.20
2022-10-11T21:47:05.441Z,8.20
2022-10-11T21:49:03.079Z,8.10
2022-10-11T21:51:06.255Z,8.10
2022-10-11T21:53:09.113Z,8.00
2022-10-11T21:55:11.943Z,8.00
2022-10-11T21:57:14.730Z,7.90
2022-10-11T21:59:18.920Z,7.80
2022-10-11T22:01:21.778Z,7.90
2022-10-11T22:03:24.600Z,7.90
2022-10-11T22:05:27.376Z,7.90
2022-10-11T22:07:30.165Z,7.90
2022-10-11T22:09:34.922Z,7.90
2022-10-11T22:11:37.748Z,8.00
2022-10-11T22:13:40.742Z,7.90
2022-10-11T22:15:44.864Z,7.90
2022-10-11T22:17:47.662Z,7.90
2022-10-11T22:19:50.469Z,7.90
2022-10-11T22:21:53.248Z,7.90
2022-10-11T22:23:56.119Z,7.90
2022-10-11T22:26:03.858Z,7.80
2022-10-11T22:28:06.859Z,7.70
2022-10-11T22:30:10.706Z,7.60
2022-10-11T22:32:14.877Z,7.50
2022-10-11T22:34:17.714Z,7.50
2022-10-11T22:36:20.513Z,7.60
2022-10-11T22:38:23.449Z,7.60
2022-10-11T22:40:26.236Z,7.60
2022-10-11T22:42:30.246Z,7.60
2022-10-11T22:44:33.046Z,7.60
2022-10-11T22:46:35.847Z,7.50
2022-10-11T22:48:39.989Z,7.60
2022-10-11T22:50:43.106Z,7.50
2022-10-11T22:52:45.888Z,7.40
2022-10-11T22:54:48.697Z,7.40
2022-10-11T22:56:51.474Z,7.40
2022-10-11T22:58:54.662Z,7.40
2022-10-11T23:00:57.438Z,7.40
2022-10-11T23:03:00.214Z,7.40
2022-10-11T23:05:04.677Z,7.50
2022-10-11T23:07:07.445Z,7.50
2022-10-11T23:09:10.246Z,7.50
2022-10-11T23:11:13.363Z,7.40
2022-10-11T23:13:16.178Z,7.30
2022-10-11T23:15:19.052Z,7.30
2022-10-11T23:17:21.816Z,7.20
2022-10-11T23:19:24.636Z,7.20
2022-10-11T23:21:28.821Z,7.30
2022-10-11T23:23:31.836Z,7.20
2022-10-11T23:25:34.685Z,7.20
2022-10-11T23:27:37.675Z,7.20
2022-10-11T23:29:41.125Z,7.20
2022-10-11T23:31:44.445Z,7.10
2022-10-11T23:33:47.432Z,7.00
2022-10-11T23:35:50.227Z,7.00
2022-10-11T23:37:55.272Z,7.00
2022-10-11T23:39:58.099Z,7.00
2022-10-11T23:42:00.882Z,7.00
2022-10-11T23:44:03.701Z,7.00
2022-10-11T23:46:07.047Z,7.00
2022-10-11T23:48:09.838Z,6.90
2022-10-11T23:50:12.626Z,6.80
2022-10-11T23:52:15.393Z,6.80
2022-10-11T23:54:19.537Z,6.60
2022-10-11T23:56:22.314Z,6.60
2022-10-11T23:58:25.096Z,6.50
